Sarah Schulte — 5BPA3 — position and weather

sailwx.info

Track history (hours):
 
Tides and Currents Weather Stations Pressure Air Temp Water Temp Dewpoint Dewpoint Depression Visibility Wind Speed Wind Dir Waves Ship Positions

Sarah Schulte

Last reported at 2017-Mar-20 12:07 UTC. Time now 2017-Mar-26 11:18 UTC.
Position N 22°45' E 119°56'.

Length 222 m; draft 7 m.

Type: Ship. MMSI: 210409000.

Date/timePositionNaut miles runAvg speedWind from/ knotsBaromVisibWave heightAir tempDewpointWater temp
2017-Mar-20 12:07N 22°45' E 119°56'713.4
2017-Mar-20 11:33N 22°38' E 119°55'  
2017-Mar-11 19:33N 24°09' E 118°16'1212.2
2017-Mar-11 18:33N 24°20' E 118°10'1111.2
2017-Mar-11 17:33N 24°30' E 118°04'1 0.6
2017-Mar-11 16:33N 24°30' E 118°05'0 0.0
2017-Mar-11 15:33N 24°30' E 118°05'0 0.0
2017-Mar-11 14:33N 24°30' E 118°05'0 0.0
2017-Mar-11 13:33N 24°30' E 118°05'0 0.0
2017-Mar-11 12:33N 24°30' E 118°05'0 0.0
2017-Mar-11 11:33N 24°30' E 118°05'0 0.0
2017-Mar-11 10:32N 24°30' E 118°05'0 0.0
2017-Mar-11 09:33N 24°30' E 118°05'0 0.0
2017-Mar-11 08:33N 24°30' E 118°05'0 0.0
2017-Mar-11 07:32N 24°30' E 118°05'0 0.1
2017-Mar-11 06:33N 24°30' E 118°04'8 7.8
2017-Mar-11 05:33N 24°23' E 118°07'9 9.5
2017-Mar-11 04:33N 24°16' E 118°15'10 9.2
2017-Mar-11 03:29N 24°12' E 118°24'  
Track history (hours):
 
Tides and Currents Weather Stations Pressure Air Temp Water Temp Dewpoint Dewpoint Depression Visibility Wind Speed Wind Dir Waves Ship Positions

Sarah Schulte

Last reported at 2017-Mar-20 12:07 UTC. Time now 2017-Mar-26 11:18 UTC.
Position N 22°45' E 119°56'.

Length 222 m; draft 7 m.

Type: Ship. MMSI: 210409000.

Date/timePositionNaut miles runAvg speedWind from/ knotsBaromVisibWave heightAir tempDewpointWater temp
2017-Mar-20 12:07N 22°45' E 119°56'713.4
2017-Mar-20 11:33N 22°38' E 119°55'  
2017-Mar-11 19:33N 24°09' E 118°16'1212.2
2017-Mar-11 18:33N 24°20' E 118°10'1111.2
2017-Mar-11 17:33N 24°30' E 118°04'1 0.6
2017-Mar-11 16:33N 24°30' E 118°05'0 0.0
2017-Mar-11 15:33N 24°30' E 118°05'0 0.0
2017-Mar-11 14:33N 24°30' E 118°05'0 0.0
2017-Mar-11 13:33N 24°30' E 118°05'0 0.0
2017-Mar-11 12:33N 24°30' E 118°05'0 0.0
2017-Mar-11 11:33N 24°30' E 118°05'0 0.0
2017-Mar-11 10:32N 24°30' E 118°05'0 0.0
2017-Mar-11 09:33N 24°30' E 118°05'0 0.0
2017-Mar-11 08:33N 24°30' E 118°05'0 0.0
2017-Mar-11 07:32N 24°30' E 118°05'0 0.1
2017-Mar-11 06:33N 24°30' E 118°04'8 7.8
2017-Mar-11 05:33N 24°23' E 118°07'9 9.5
2017-Mar-11 04:33N 24°16' E 118°15'10 9.2
2017-Mar-11 03:29N 24°12' E 118°24'  

Dump ship's entire track history